Archimede — IXZR — position and weather

sailwx.info

Track history (hours):
 
Tides and Currents Weather Stations Pressure Air Temp Water Temp Dewpoint Dewpoint Depression Visibility Wind Speed Wind Dir Waves Ship Positions

Archimede

Last reported at 2015-Aug-29 01:33 UTC. Time now 2015-Aug-29 03:05 UTC.
Position N 38°13' E 015°34'.

; draft 3.1 m.

Type: Passenger vessel. MMSI: 247054700.

Date/timePositionNaut miles runAvg speedWind from/ knotsBaromVisibWave heightAir tempDewpointWater temp
2015-Aug-29 01:33N 38°13' E 015°34'4 4.0
2015-Aug-29 00:33N 38°09' E 015°34'4 4.3
2015-Aug-28 23:33N 38°13' E 015°36'4 4.5
2015-Aug-28 22:33N 38°08' E 015°34'4 4.1
2015-Aug-28 21:33N 38°12' E 015°36'5 4.5
2015-Aug-28 20:33N 38°08' E 015°33'6 6.0
2015-Aug-28 19:33N 38°13' E 015°37'4 4.4
2015-Aug-28 18:33N 38°09' E 015°37'2 2.1
2015-Aug-28 17:33N 38°11' E 015°35'2 1.5
2015-Aug-28 16:33N 38°10' E 015°37'2 1.9
2015-Aug-28 15:33N 38°10' E 015°34'4 3.7
2015-Aug-28 14:33N 38°13' E 015°37'1 0.8
2015-Aug-28 13:33N 38°13' E 015°38'1 0.5
2015-Aug-28 12:33N 38°14' E 015°37'6 5.9
2015-Aug-28 11:33N 38°08' E 015°34'5 4.9
2015-Aug-28 10:34N 38°13' E 015°36'4 3.8
2015-Aug-28 09:34N 38°09' E 015°36'2 2.1
2015-Aug-28 08:34N 38°11' E 015°35'2 2.1
2015-Aug-28 07:33N 38°09' E 015°36'2 1.6
2015-Aug-28 06:34N 38°09' E 015°33'5 1.0
2015-Aug-28 01:07N 38°13' E 015°38'5 9.5
2015-Aug-28 00:33N 38°09' E 015°35'5 4.7
2015-Aug-27 23:33N 38°13' E 015°37'6 6.2
2015-Aug-27 22:33N 38°08' E 015°32'7 7.0
2015-Aug-27 21:33N 38°13' E 015°38'7 7.3
2015-Aug-27 20:33N 38°08' E 015°31'7 7.5
2015-Aug-27 19:33N 38°13' E 015°38'4 4.2
2015-Aug-27 18:33N 38°09' E 015°37'3 3.0
2015-Aug-27 17:33N 38°12' E 015°35'4 4.1
2015-Aug-27 16:33N 38°08' E 015°33'3 3.2
2015-Aug-27 15:33N 38°11' E 015°35'2 1.7
2015-Aug-27 14:33N 38°10' E 015°37'3 2.8
2015-Aug-27 13:34N 38°09' E 015°34'6 5.6
2015-Aug-27 12:34N 38°13' E 015°38'7 6.9
2015-Aug-27 11:33N 38°08' E 015°32'7 6.5
2015-Aug-27 10:33N 38°13' E 015°37'5 4.6
2015-Aug-27 09:33N 38°09' E 015°36'3 2.7
2015-Aug-27 08:33N 38°12' E 015°36'3 2.9
2015-Aug-27 07:33N 38°09' E 015°35'2 2.1
2015-Aug-27 06:33N 38°11' E 015°35'3 0.5
2015-Aug-26 23:32N 38°13' E 015°38'7 7.5
2015-Aug-26 22:33N 38°08' E 015°31'7 7.5
2015-Aug-26 21:33N 38°13' E 015°38'6 6.4
2015-Aug-26 20:33N 38°08' E 015°33'6 6.4
2015-Aug-26 19:33N 38°13' E 015°38'4 4.3
2015-Aug-26 18:34N 38°09' E 015°36'2 1.9
2015-Aug-26 17:33N 38°11' E 015°35'2 2.2
2015-Aug-26 16:34N 38°09' E 015°36'2 1.9
2015-Aug-26 15:33N 38°10' E 015°34'4 4.5
2015-Aug-26 14:33N 38°13' E 015°38'7 7.1
2015-Aug-26 13:33N 38°08' E 015°32'7 7.1
2015-Aug-26 12:33N 38°13' E 015°38'3 3.4
2015-Aug-26 11:33N 38°13' E 015°34'0 0.2
2015-Aug-26 10:33N 38°12' E 015°34'0 0.0
2015-Aug-26 09:33N 38°12' E 015°34'0 0.0
2015-Aug-26 08:32N 38°12' E 015°34'0 0.0
2015-Aug-26 07:33N 38°12' E 015°34'0 0.0
2015-Aug-26 06:33N 38°12' E 015°34'0 0.0
2015-Aug-25 13:33N 38°12' E 015°34'0 0.0
2015-Aug-25 12:33N 38°12' E 015°34'0 0.0
2015-Aug-25 11:33N 38°12' E 015°34'0 0.0
2015-Aug-25 10:33N 38°12' E 015°34'0 0.0
2015-Aug-25 09:33N 38°12' E 015°34'0 0.0
2015-Aug-25 08:33N 38°12' E 015°34'0 0.0
2015-Aug-25 07:33N 38°12' E 015°34'0 0.0
2015-Aug-25 06:34N 38°12' E 015°34'3 0.3
2015-Aug-24 18:34N 38°14' E 015°37'7 7.3
2015-Aug-24 17:33N 38°08' E 015°31'5 5.0
2015-Aug-24 16:34N 38°13' E 015°34'1 0.9
2015-Aug-24 15:34N 38°13' E 015°35'3 2.5
2015-Aug-24 14:34N 38°13' E 015°38'1 0.5
2015-Aug-24 13:34N 38°13' E 015°37'3 2.9
2015-Aug-24 12:33N 38°13' E 015°34'0 0.0
2015-Aug-23 18:06N 38°12' E 015°34'0 0.3
2015-Aug-23 17:33N 38°13' E 015°34'0 0.0
2015-Aug-23 16:34N 38°13' E 015°34'0 0.1
2015-Aug-23 15:34N 38°13' E 015°34'2 2.3
2015-Aug-23 14:33N 38°13' E 015°37'1 1.2
2015-Aug-23 13:33N 38°13' E 015°38'1 1.2
2015-Aug-23 12:33N 38°13' E 015°36'2 2.2
2015-Aug-23 11:33N 38°13' E 015°34'1 1.2
2015-Aug-23 10:33N 38°13' E 015°35'2 2.2
2015-Aug-23 09:33N 38°13' E 015°38'3 2.9
2015-Aug-23 08:33N 38°13' E 015°34'1 0.5
2015-Aug-23 07:33N 38°13' E 015°34'2 1.6
2015-Aug-23 06:34N 38°12' E 015°36'2 1.5
2015-Aug-23 05:34N 38°13' E 015°34'  
2015-Aug-20 01:10N 38°13' E 015°38'6 9.9
2015-Aug-20 00:33N 38°08' E 015°34'6 6.1
2015-Aug-19 23:33N 38°13' E 015°38'7 7.5
2015-Aug-19 22:34N 38°08' E 015°31'7 6.9
2015-Aug-19 21:33N 38°13' E 015°37'7 6.5
2015-Aug-19 20:33N 38°08' E 015°32'7 7.0
2015-Aug-19 19:34N 38°13' E 015°38'5 4.6
2015-Aug-19 18:33N 38°09' E 015°36'2 1.7
2015-Aug-19 17:33N 38°11' E 015°35'2 1.9
2015-Aug-19 16:33N 38°11' E 015°37'6 5.5
2015-Aug-19 15:33N 38°08' E 015°32'7 7.3
2015-Aug-19 14:33N 38°13' E 015°38'7 7.5
2015-Aug-19 13:33N 38°08' E 015°31'7 7.5
2015-Aug-19 12:33N 38°13' E 015°38'6 6.5
2015-Aug-19 11:33N 38°08' E 015°33'6 6.0
2015-Aug-19 10:33N 38°13' E 015°37'5 4.9
2015-Aug-19 09:33N 38°09' E 015°35'3 3.2
2015-Aug-19 08:33N 38°12' E 015°36'3 3.2
2015-Aug-19 07:34N 38°09' E 015°35'2 2.1
2015-Aug-19 06:34N 38°11' E 015°35'  
Track history (hours):
 
Tides and Currents Weather Stations Pressure Air Temp Water Temp Dewpoint Dewpoint Depression Visibility Wind Speed Wind Dir Waves Ship Positions

Archimede

Last reported at 2015-Aug-29 01:33 UTC. Time now 2015-Aug-29 03:05 UTC.
Position N 38°13' E 015°34'.

; draft 3.1 m.

Type: Passenger vessel. MMSI: 247054700.

Date/timePositionNaut miles runAvg speedWind from/ knotsBaromVisibWave heightAir tempDewpointWater temp
2015-Aug-29 01:33N 38°13' E 015°34'4 4.0
2015-Aug-29 00:33N 38°09' E 015°34'4 4.3
2015-Aug-28 23:33N 38°13' E 015°36'4 4.5
2015-Aug-28 22:33N 38°08' E 015°34'4 4.1
2015-Aug-28 21:33N 38°12' E 015°36'5 4.5
2015-Aug-28 20:33N 38°08' E 015°33'6 6.0
2015-Aug-28 19:33N 38°13' E 015°37'4 4.4
2015-Aug-28 18:33N 38°09' E 015°37'2 2.1
2015-Aug-28 17:33N 38°11' E 015°35'2 1.5
2015-Aug-28 16:33N 38°10' E 015°37'2 1.9
2015-Aug-28 15:33N 38°10' E 015°34'4 3.7
2015-Aug-28 14:33N 38°13' E 015°37'1 0.8
2015-Aug-28 13:33N 38°13' E 015°38'1 0.5
2015-Aug-28 12:33N 38°14' E 015°37'6 5.9
2015-Aug-28 11:33N 38°08' E 015°34'5 4.9
2015-Aug-28 10:34N 38°13' E 015°36'4 3.8
2015-Aug-28 09:34N 38°09' E 015°36'2 2.1
2015-Aug-28 08:34N 38°11' E 015°35'2 2.1
2015-Aug-28 07:33N 38°09' E 015°36'2 1.6
2015-Aug-28 06:34N 38°09' E 015°33'5 1.0
2015-Aug-28 01:07N 38°13' E 015°38'5 9.5
2015-Aug-28 00:33N 38°09' E 015°35'5 4.7
2015-Aug-27 23:33N 38°13' E 015°37'6 6.2
2015-Aug-27 22:33N 38°08' E 015°32'7 7.0
2015-Aug-27 21:33N 38°13' E 015°38'7 7.3
2015-Aug-27 20:33N 38°08' E 015°31'7 7.5
2015-Aug-27 19:33N 38°13' E 015°38'4 4.2
2015-Aug-27 18:33N 38°09' E 015°37'3 3.0
2015-Aug-27 17:33N 38°12' E 015°35'4 4.1
2015-Aug-27 16:33N 38°08' E 015°33'3 3.2
2015-Aug-27 15:33N 38°11' E 015°35'2 1.7
2015-Aug-27 14:33N 38°10' E 015°37'3 2.8
2015-Aug-27 13:34N 38°09' E 015°34'6 5.6
2015-Aug-27 12:34N 38°13' E 015°38'7 6.9
2015-Aug-27 11:33N 38°08' E 015°32'7 6.5
2015-Aug-27 10:33N 38°13' E 015°37'5 4.6
2015-Aug-27 09:33N 38°09' E 015°36'3 2.7
2015-Aug-27 08:33N 38°12' E 015°36'3 2.9
2015-Aug-27 07:33N 38°09' E 015°35'2 2.1
2015-Aug-27 06:33N 38°11' E 015°35'3 0.5
2015-Aug-26 23:32N 38°13' E 015°38'7 7.5
2015-Aug-26 22:33N 38°08' E 015°31'7 7.5
2015-Aug-26 21:33N 38°13' E 015°38'6 6.4
2015-Aug-26 20:33N 38°08' E 015°33'6 6.4
2015-Aug-26 19:33N 38°13' E 015°38'4 4.3
2015-Aug-26 18:34N 38°09' E 015°36'2 1.9
2015-Aug-26 17:33N 38°11' E 015°35'2 2.2
2015-Aug-26 16:34N 38°09' E 015°36'2 1.9
2015-Aug-26 15:33N 38°10' E 015°34'4 4.5
2015-Aug-26 14:33N 38°13' E 015°38'7 7.1
2015-Aug-26 13:33N 38°08' E 015°32'7 7.1
2015-Aug-26 12:33N 38°13' E 015°38'3 3.4
2015-Aug-26 11:33N 38°13' E 015°34'0 0.2
2015-Aug-26 10:33N 38°12' E 015°34'0 0.0
2015-Aug-26 09:33N 38°12' E 015°34'0 0.0
2015-Aug-26 08:32N 38°12' E 015°34'0 0.0
2015-Aug-26 07:33N 38°12' E 015°34'0 0.0
2015-Aug-26 06:33N 38°12' E 015°34'0 0.0
2015-Aug-25 13:33N 38°12' E 015°34'0 0.0
2015-Aug-25 12:33N 38°12' E 015°34'0 0.0
2015-Aug-25 11:33N 38°12' E 015°34'0 0.0
2015-Aug-25 10:33N 38°12' E 015°34'0 0.0
2015-Aug-25 09:33N 38°12' E 015°34'0 0.0
2015-Aug-25 08:33N 38°12' E 015°34'0 0.0
2015-Aug-25 07:33N 38°12' E 015°34'0 0.0
2015-Aug-25 06:34N 38°12' E 015°34'3 0.3
2015-Aug-24 18:34N 38°14' E 015°37'7 7.3
2015-Aug-24 17:33N 38°08' E 015°31'5 5.0
2015-Aug-24 16:34N 38°13' E 015°34'1 0.9
2015-Aug-24 15:34N 38°13' E 015°35'3 2.5
2015-Aug-24 14:34N 38°13' E 015°38'1 0.5
2015-Aug-24 13:34N 38°13' E 015°37'3 2.9
2015-Aug-24 12:33N 38°13' E 015°34'0 0.0
2015-Aug-23 18:06N 38°12' E 015°34'0 0.3
2015-Aug-23 17:33N 38°13' E 015°34'0 0.0
2015-Aug-23 16:34N 38°13' E 015°34'0 0.1
2015-Aug-23 15:34N 38°13' E 015°34'2 2.3
2015-Aug-23 14:33N 38°13' E 015°37'1 1.2
2015-Aug-23 13:33N 38°13' E 015°38'1 1.2
2015-Aug-23 12:33N 38°13' E 015°36'2 2.2
2015-Aug-23 11:33N 38°13' E 015°34'1 1.2
2015-Aug-23 10:33N 38°13' E 015°35'2 2.2
2015-Aug-23 09:33N 38°13' E 015°38'3 2.9
2015-Aug-23 08:33N 38°13' E 015°34'1 0.5
2015-Aug-23 07:33N 38°13' E 015°34'2 1.6
2015-Aug-23 06:34N 38°12' E 015°36'2 1.5
2015-Aug-23 05:34N 38°13' E 015°34'  
2015-Aug-20 01:10N 38°13' E 015°38'6 9.9
2015-Aug-20 00:33N 38°08' E 015°34'6 6.1
2015-Aug-19 23:33N 38°13' E 015°38'7 7.5
2015-Aug-19 22:34N 38°08' E 015°31'7 6.9
2015-Aug-19 21:33N 38°13' E 015°37'7 6.5
2015-Aug-19 20:33N 38°08' E 015°32'7 7.0
2015-Aug-19 19:34N 38°13' E 015°38'5 4.6
2015-Aug-19 18:33N 38°09' E 015°36'2 1.7
2015-Aug-19 17:33N 38°11' E 015°35'2 1.9
2015-Aug-19 16:33N 38°11' E 015°37'6 5.5
2015-Aug-19 15:33N 38°08' E 015°32'7 7.3
2015-Aug-19 14:33N 38°13' E 015°38'7 7.5
2015-Aug-19 13:33N 38°08' E 015°31'7 7.5
2015-Aug-19 12:33N 38°13' E 015°38'6 6.5
2015-Aug-19 11:33N 38°08' E 015°33'6 6.0
2015-Aug-19 10:33N 38°13' E 015°37'5 4.9
2015-Aug-19 09:33N 38°09' E 015°35'3 3.2
2015-Aug-19 08:33N 38°12' E 015°36'3 3.2
2015-Aug-19 07:34N 38°09' E 015°35'2 2.1
2015-Aug-19 06:34N 38°11' E 015°35'  

Dump ship's entire track history